CTH3 weather

Grandes-Bergeronnes Airport
Grandes-Bergeronnes, Quebec, Canada

Public forecast

Using degrees Celsius for public forecast. Weather courtesy of forecast.io.

METAR (pilot weather report)

Closest report is Mont Joli Airport, 57.8 nm (107.0 km) ENE. Retrieved 2019/05/25 05:00 UTC (29 minutes ago):

CYYY 250500Z 22010KT 30SM SKC 10/04 A3003 RMK SLP172

TAF (pilot weather forecast)

Forecast is more than 12 hours old.

Closest forecast is Charlevoix Airport, 46.9 nm (86.9 km) SW. Retrieved 2018/06/10 18:00 UTC (12 months ago):

TAF CYML 101730Z 1018/1106 12005KT P6SM FEW060 FM102100 14006KT P6SM SCT080 BECMG 1021/1023 VRB03KT RMK NXT FCST BY 110000Z